createdAt,value
2022-12-24T04:01:25.426Z,86.30
2022-12-24T04:04:36.881Z,98.00
2022-12-24T04:07:47.425Z,108.87
2022-12-24T04:10:57.439Z,106.80
2022-12-24T04:14:07.602Z,99.50
2022-12-24T04:17:19.265Z,139.93
2022-12-24T04:20:30.337Z,93.90
2022-12-24T04:23:42.623Z,126.20
2022-12-24T04:26:53.151Z,152.33
2022-12-24T04:30:04.005Z,106.40
2022-12-24T04:33:15.645Z,126.57
2022-12-24T04:36:25.814Z,112.00
2022-12-24T04:39:35.808Z,97.47
2022-12-24T04:42:45.836Z,78.47
2022-12-24T04:45:55.903Z,91.83
2022-12-24T04:49:07.149Z,80.57
2022-12-24T04:52:17.380Z,89.53
2022-12-24T04:55:27.272Z,85.03
2022-12-24T04:58:37.277Z,84.73
2022-12-24T05:01:47.403Z,60.07
2022-12-24T05:04:58.965Z,77.50
2022-12-24T05:08:09.154Z,93.03
2022-12-24T05:11:19.426Z,68.43
2022-12-24T05:14:29.722Z,79.30
2022-12-24T05:17:40.189Z,74.67
2022-12-24T05:20:52.067Z,99.13
2022-12-24T05:24:13.184Z,75.60
2022-12-24T05:27:23.561Z,70.60
2022-12-24T05:30:33.553Z,82.70
2022-12-24T05:33:43.516Z,98.37
2022-12-24T05:36:54.773Z,72.77
2022-12-24T05:40:05.318Z,69.27
2022-12-24T05:43:15.509Z,75.40
2022-12-24T05:46:26.767Z,65.20
2022-12-24T05:49:38.123Z,88.40
2022-12-24T05:52:49.434Z,92.73
2022-12-24T05:56:05.329Z,112.93
2022-12-24T05:59:15.558Z,69.77
2022-12-24T07:39:06.803Z,88.20
2022-12-24T07:42:17.006Z,103.87
2022-12-24T07:45:27.711Z,107.47
2022-12-24T07:48:38.134Z,91.90
2022-12-24T07:51:48.172Z,115.30
2022-12-24T07:54:59.548Z,105.17
2022-12-24T07:58:09.556Z,130.37
2022-12-24T08:01:19.699Z,97.83
2022-12-24T08:04:32.808Z,100.83
2022-12-24T08:07:42.808Z,111.27
2022-12-24T08:10:54.892Z,81.53
2022-12-24T08:14:04.957Z,110.40
2022-12-24T08:17:15.014Z,140.40
2022-12-24T08:20:25.133Z,106.93
2022-12-24T08:23:35.202Z,115.97
2022-12-24T08:26:46.733Z,128.10
2022-12-24T08:29:56.654Z,119.13
2022-12-24T08:33:06.647Z,83.07
2022-12-24T08:36:16.625Z,103.47
2022-12-24T08:39:26.720Z,108.73
2022-12-24T08:42:38.060Z,119.10
2022-12-24T08:45:49.356Z,102.17
2022-12-24T08:48:59.611Z,122.63
2022-12-24T08:52:09.899Z,115.50
2022-12-24T08:55:20.059Z,94.87
2022-12-24T08:58:32.506Z,83.33
2022-12-24T09:01:42.725Z,102.57
2022-12-24T09:04:52.890Z,99.40
2022-12-24T09:08:02.920Z,86.00
2022-12-24T09:11:15.652Z,95.20
2022-12-24T09:14:27.024Z,83.00
2022-12-24T09:17:37.544Z,74.30
2022-12-24T09:20:50.192Z,86.13
2022-12-24T09:24:05.589Z,125.23
2022-12-24T09:27:15.573Z,137.57
2022-12-24T09:30:27.157Z,205.90
2022-12-24T09:33:39.576Z,193.27
2022-12-24T09:36:49.614Z,171.30
2022-12-24T09:39:59.633Z,196.00
2022-12-24T09:43:17.167Z,204.07
2022-12-24T09:46:32.733Z,209.07
2022-12-24T09:49:46.543Z,183.60
2022-12-24T09:52:58.373Z,191.00
2022-12-24T09:56:14.213Z,155.07
2022-12-24T09:59:28.115Z,145.07
2022-12-24T10:02:39.896Z,132.90
2022-12-24T10:06:02.743Z,139.17
2022-12-24T10:09:21.064Z,103.50
2022-12-24T10:12:47.710Z,107.37
2022-12-24T10:16:04.535Z,108.43
2022-12-24T10:19:22.666Z,90.70
2022-12-24T10:22:42.314Z,87.27
2022-12-24T10:26:04.591Z,83.40
2022-12-24T10:29:19.332Z,78.20
2022-12-24T10:32:33.625Z,81.37
2022-12-24T10:35:50.039Z,89.07
2022-12-24T10:39:00.476Z,85.97
2022-12-24T10:42:15.003Z,98.83
2022-12-24T10:45:32.220Z,91.93
2022-12-24T10:48:50.641Z,91.47
2022-12-24T10:52:06.592Z,103.23
2022-12-24T10:55:24.776Z,248.63
2022-12-24T10:58:35.638Z,118.10
2022-12-24T11:01:49.011Z,132.10
2022-12-24T11:05:00.556Z,194.70
2022-12-24T11:08:18.195Z,257.23
2022-12-24T11:11:35.587Z,205.90
2022-12-24T11:14:45.887Z,142.50
2022-12-24T11:17:58.073Z,107.17
2022-12-24T11:21:09.189Z,116.97
2022-12-24T11:24:29.017Z,132.30
2022-12-24T11:27:44.616Z,139.63
2022-12-24T11:31:01.992Z,103.87
2022-12-24T11:34:24.552Z,106.77
2022-12-24T11:37:34.808Z,100.40
2022-12-24T11:40:48.890Z,123.23
2022-12-24T11:44:03.825Z,98.53
2022-12-24T11:47:15.411Z,79.77
2022-12-24T11:50:29.346Z,72.83
2022-12-24T11:53:45.956Z,77.37
2022-12-24T11:57:01.000Z,85.50
2022-12-24T12:00:12.729Z,65.23
2022-12-24T12:03:31.677Z,85.47
2022-12-24T12:06:47.745Z,101.97
2022-12-24T12:10:01.871Z,99.63
2022-12-24T12:13:16.553Z,107.27
2022-12-24T12:16:56.262Z,103.57
2022-12-24T12:20:14.491Z,100.37
2022-12-24T12:23:29.995Z,120.83
2022-12-24T12:26:44.187Z,110.07
2022-12-24T12:30:00.837Z,69.17
2022-12-24T12:33:21.987Z,100.93
2022-12-24T12:36:37.298Z,87.07
2022-12-24T12:39:47.615Z,110.27
2022-12-24T12:43:13.876Z,91.20
2022-12-24T12:46:33.770Z,96.23
2022-12-24T12:49:57.222Z,77.13
2022-12-24T12:53:30.568Z,99.03
2022-12-24T12:56:47.158Z,96.70
2022-12-24T13:00:02.843Z,94.17
2022-12-24T13:03:36.401Z,90.53
2022-12-24T13:07:04.137Z,91.60
2022-12-24T13:10:34.520Z,118.23
2022-12-24T13:14:01.469Z,83.30
2022-12-24T13:17:29.812Z,94.90
2022-12-24T13:20:46.903Z,125.63
2022-12-24T13:24:06.968Z,103.03
2022-12-24T13:27:20.147Z,57.60
2022-12-24T13:30:37.084Z,73.57
2022-12-24T13:33:49.650Z,85.73
2022-12-24T13:37:07.013Z,79.80
2022-12-24T13:40:23.304Z,74.13
2022-12-24T13:44:03.626Z,110.50
2022-12-24T13:47:25.272Z,82.63
2022-12-24T13:50:41.352Z,109.17
2022-12-24T13:54:00.073Z,117.30
2022-12-24T13:57:26.723Z,111.43
2022-12-24T14:00:44.813Z,92.30
2022-12-24T14:03:59.109Z,82.50
2022-12-24T14:07:11.491Z,72.73
2022-12-24T14:10:26.834Z,75.70
2022-12-24T14:13:52.554Z,62.87
2022-12-24T14:17:05.849Z,67.27
2022-12-24T14:20:17.055Z,72.83
2022-12-24T14:23:36.631Z,999.90
2022-12-24T14:27:16.264Z,999.90
2022-12-24T14:30:28.048Z,999.90
2022-12-24T14:33:52.030Z,999.90
2022-12-24T14:37:18.504Z,999.90
2022-12-24T14:41:10.497Z,999.90
2022-12-24T14:44:35.640Z,999.90
2022-12-24T14:47:53.330Z,999.90
2022-12-24T14:51:13.695Z,999.90
2022-12-24T14:54:36.359Z,999.90
2022-12-24T14:58:17.568Z,999.90
2022-12-24T15:01:45.496Z,999.90
2022-12-24T15:05:11.244Z,999.90
2022-12-24T15:08:27.089Z,999.90
2022-12-24T15:11:37.499Z,999.90
2022-12-24T15:14:47.489Z,999.90
2022-12-24T15:18:00.408Z,999.90
2022-12-24T15:21:19.193Z,999.90
2022-12-24T15:24:32.660Z,999.90
2022-12-24T15:27:42.703Z,999.90
2022-12-24T15:31:06.572Z,999.90
2022-12-24T15:34:43.835Z,999.90
2022-12-24T15:37:59.660Z,999.90
2022-12-24T15:41:25.478Z,999.90
2022-12-24T15:44:57.542Z,999.90
2022-12-24T15:48:11.459Z,999.90
2022-12-24T15:51:57.996Z,999.90
2022-12-24T15:55:27.126Z,999.90
2022-12-24T15:58:42.058Z,999.90
2022-12-24T16:01:52.719Z,999.90
2022-12-24T16:05:19.220Z,999.90
2022-12-24T16:08:33.956Z,999.90
2022-12-24T16:12:03.771Z,999.90
2022-12-24T16:15:18.692Z,999.90
2022-12-24T16:18:33.296Z,999.90
2022-12-24T16:21:44.137Z,999.90
2022-12-24T16:24:55.871Z,999.90
2022-12-24T16:28:16.139Z,999.90
2022-12-24T16:31:41.717Z,999.90
2022-12-24T16:34:53.023Z,999.90
2022-12-24T16:43:09.783Z,999.90
2022-12-24T16:49:52.703Z,999.90
2022-12-24T16:53:02.639Z,999.90
2022-12-24T16:56:12.370Z,999.90
2022-12-24T16:59:25.520Z,999.90
2022-12-24T17:02:35.442Z,999.90
2022-12-24T17:05:45.632Z,999.90
2022-12-24T17:08:55.377Z,999.90
2022-12-24T17:12:05.543Z,999.90
2022-12-24T17:15:16.673Z,999.90
2022-12-24T17:18:26.421Z,999.90
2022-12-24T17:21:37.181Z,999.90
2022-12-24T17:24:47.321Z,999.90
2022-12-24T17:27:56.957Z,999.90
2022-12-24T17:31:09.379Z,999.90
2022-12-24T17:34:19.094Z,999.90
2022-12-24T17:37:29.064Z,999.90
2022-12-24T17:40:41.327Z,999.90
2022-12-24T17:43:51.235Z,999.90
2022-12-24T17:47:05.199Z,999.90
2022-12-24T17:50:15.221Z,999.90
2022-12-24T17:53:25.060Z,999.90
2022-12-24T17:56:34.823Z,999.90
2022-12-24T17:59:44.716Z,999.90
2022-12-24T18:02:55.811Z,999.90
2022-12-24T18:06:07.119Z,999.90
2022-12-24T18:09:19.037Z,999.90
2022-12-24T18:12:28.929Z,999.90
2022-12-24T18:15:41.126Z,999.90
2022-12-24T18:18:53.328Z,999.90
2022-12-24T18:22:03.075Z,999.90
2022-12-24T18:25:15.767Z,999.90
2022-12-24T18:28:25.448Z,999.90
2022-12-24T18:31:35.695Z,999.90
2022-12-24T18:34:46.809Z,999.90
2022-12-24T18:37:56.696Z,999.90
2022-12-24T18:41:08.215Z,999.90
2022-12-24T18:44:24.260Z,999.90
2022-12-24T18:47:34.901Z,999.90
2022-12-24T18:50:58.275Z,999.90
2022-12-24T18:54:08.683Z,999.90
2022-12-24T18:57:18.648Z,999.90
2022-12-24T19:00:28.716Z,999.90
2022-12-24T19:03:38.517Z,999.90
2022-12-24T19:06:53.308Z,999.90
2022-12-24T19:10:03.597Z,999.90
2022-12-24T19:13:13.407Z,999.90
2022-12-24T19:16:23.315Z,999.90
2022-12-24T19:19:33.094Z,999.90
2022-12-24T19:22:44.204Z,999.90
2022-12-24T19:25:53.851Z,999.90
2022-12-24T19:29:03.503Z,999.90
2022-12-24T19:32:13.242Z,999.90
2022-12-24T19:35:22.940Z,999.90
2022-12-24T19:38:34.674Z,999.90
2022-12-24T19:41:44.323Z,999.90
2022-12-24T19:44:54.169Z,999.90
2022-12-24T19:48:04.478Z,999.90
2022-12-24T19:51:14.223Z,999.90
2022-12-24T19:54:25.222Z,999.90
2022-12-24T19:57:35.157Z,999.90
2022-12-24T20:00:44.881Z,999.90
2022-12-24T20:03:55.448Z,999.90
2022-12-24T20:07:05.380Z,999.90
2022-12-24T20:10:16.516Z,999.90
2022-12-24T20:13:26.494Z,999.90
2022-12-24T20:16:36.797Z,999.90
2022-12-24T20:19:49.823Z,999.90
2022-12-24T20:22:59.739Z,999.90
2022-12-24T20:26:14.169Z,999.90
2022-12-24T20:29:24.036Z,999.90
2022-12-24T20:32:33.800Z,999.90
2022-12-24T20:35:43.506Z,999.90
2022-12-24T20:38:53.546Z,999.90
2022-12-24T20:42:04.911Z,999.90
2022-12-24T20:45:14.758Z,999.90
2022-12-24T20:48:24.799Z,999.90
2022-12-24T20:51:34.699Z,999.90
2022-12-24T20:54:44.473Z,999.90
2022-12-24T20:57:55.517Z,999.90
2022-12-24T21:01:09.580Z,999.90
2022-12-24T21:04:19.620Z,999.90
2022-12-24T21:07:29.598Z,999.90
2022-12-24T21:10:40.256Z,999.90
2022-12-24T21:13:50.371Z,999.90
2022-12-24T21:17:00.332Z,999.90
2022-12-24T21:20:10.851Z,999.90
2022-12-24T21:23:20.564Z,999.90
2022-12-24T21:26:30.277Z,999.90
2022-12-24T21:29:41.368Z,999.90
2022-12-24T21:32:51.445Z,999.90
2022-12-24T21:36:01.222Z,999.90
2022-12-24T21:39:10.936Z,999.90
2022-12-24T21:42:20.892Z,999.90
2022-12-24T21:45:32.348Z,999.90
2022-12-24T21:48:53.157Z,999.90
2022-12-24T21:52:02.917Z,999.90
2022-12-24T21:55:12.584Z,999.90
2022-12-24T21:58:23.594Z,999.90
2022-12-24T22:01:34.706Z,999.90
2022-12-24T22:04:44.830Z,999.90
2022-12-24T22:08:06.427Z,999.90
2022-12-24T22:11:27.561Z,999.90
2022-12-24T22:14:37.316Z,999.90
2022-12-24T22:17:48.359Z,999.90
2022-12-24T22:20:58.044Z,999.90
2022-12-24T22:24:08.507Z,999.90
2022-12-24T22:27:18.355Z,999.90
2022-12-24T22:30:28.366Z,999.90
2022-12-24T22:33:39.309Z,999.90
2022-12-24T22:36:49.023Z,999.90
2022-12-24T22:39:58.686Z,999.90
2022-12-24T22:43:08.652Z,999.90
2022-12-24T22:46:18.860Z,999.90
2022-12-24T22:49:29.883Z,999.90
2022-12-24T22:52:39.914Z,999.90
2022-12-24T22:55:56.142Z,999.90
2022-12-24T22:59:05.835Z,999.90
2022-12-24T23:02:15.865Z,999.90
2022-12-24T23:05:28.596Z,999.90
2022-12-24T23:08:39.032Z,999.90
2022-12-24T23:11:48.852Z,999.90
2022-12-24T23:14:57.688Z,999.90
2022-12-24T23:18:08.597Z,999.90
2022-12-24T23:21:20.071Z,999.90
2022-12-24T23:24:30.490Z,999.90
2022-12-24T23:27:40.213Z,999.90
